sensor_id;sensor_type;location;lat;lon;timestamp;temperature;humidity
37794;DHT22;23632;48.826;15.176;2023-04-01T00:01:02;18.10;64.80
37794;DHT22;23632;48.826;15.176;2023-04-01T00:03:30;18.00;64.80
37794;DHT22;23632;48.826;15.176;2023-04-01T00:06:00;18.00;64.80
37794;DHT22;23632;48.826;15.176;2023-04-01T00:08:29;18.10;64.80
37794;DHT22;23632;48.826;15.176;2023-04-01T00:10:56;18.00;64.90
37794;DHT22;23632;48.826;15.176;2023-04-01T00:13:27;18.00;64.80
37794;DHT22;23632;48.826;15.176;2023-04-01T00:15:55;18.10;65.00
37794;DHT22;23632;48.826;15.176;2023-04-01T00:18:23;18.00;64.80
37794;DHT22;23632;48.826;15.176;2023-04-01T00:20:53;18.00;64.80
37794;DHT22;23632;48.826;15.176;2023-04-01T00:23:20;18.00;64.90
37794;DHT22;23632;48.826;15.176;2023-04-01T00:25:48;18.00;64.80
37794;DHT22;23632;48.826;15.176;2023-04-01T00:28:17;18.00;64.90
37794;DHT22;23632;48.826;15.176;2023-04-01T00:30:45;18.00;64.90
37794;DHT22;23632;48.826;15.176;2023-04-01T00:33:14;18.00;64.80
37794;DHT22;23632;48.826;15.176;2023-04-01T00:35:42;18.00;64.90
37794;DHT22;23632;48.826;15.176;2023-04-01T00:38:09;18.00;65.80
37794;DHT22;23632;48.826;15.176;2023-04-01T00:40:43;18.00;64.90
37794;DHT22;23632;48.826;15.176;2023-04-01T00:43:18;18.00;65.00
37794;DHT22;23632;48.826;15.176;2023-04-01T00:45:48;18.00;65.00
37794;DHT22;23632;48.826;15.176;2023-04-01T00:48:22;18.00;65.00
37794;DHT22;23632;48.826;15.176;2023-04-01T00:50:58;18.00;65.00
37794;DHT22;23632;48.826;15.176;2023-04-01T00:53:28;18.00;65.00
37794;DHT22;23632;48.826;15.176;2023-04-01T00:56:01;18.00;65.00
37794;DHT22;23632;48.826;15.176;2023-04-01T00:58:36;18.00;65.00
37794;DHT22;23632;48.826;15.176;2023-04-01T01:01:06;18.00;65.00
37794;DHT22;23632;48.826;15.176;2023-04-01T01:03:35;18.00;65.00
37794;DHT22;23632;48.826;15.176;2023-04-01T01:12:40;17.90;64.90
37794;DHT22;23632;48.826;15.176;2023-04-01T01:15:37;17.90;65.00
37794;DHT22;23632;48.826;15.176;2023-04-01T01:18:38;17.90;65.00
37794;DHT22;23632;48.826;15.176;2023-04-01T01:27:02;17.90;65.00
37794;DHT22;23632;48.826;15.176;2023-04-01T01:35:41;17.80;65.00
37794;DHT22;23632;48.826;15.176;2023-04-01T01:38:22;17.80;65.10
37794;DHT22;23632;48.826;15.176;2023-04-01T01:40:59;17.80;65.10
37794;DHT22;23632;48.826;15.176;2023-04-01T01:43:37;17.80;65.10
37794;DHT22;23632;48.826;15.176;2023-04-01T01:46:18;17.80;65.10
37794;DHT22;23632;48.826;15.176;2023-04-01T01:48:47;17.80;65.10
37794;DHT22;23632;48.826;15.176;2023-04-01T01:51:15;17.80;65.10
37794;DHT22;23632;48.826;15.176;2023-04-01T01:53:43;17.80;65.20
37794;DHT22;23632;48.826;15.176;2023-04-01T01:56:11;17.80;65.10
37794;DHT22;23632;48.826;15.176;2023-04-01T01:58:49;17.80;65.10
37794;DHT22;23632;48.826;15.176;2023-04-01T02:01:24;17.80;65.20
37794;DHT22;23632;48.826;15.176;2023-04-01T02:03:57;17.80;65.10
37794;DHT22;23632;48.826;15.176;2023-04-01T02:06:30;17.80;65.10
37794;DHT22;23632;48.826;15.176;2023-04-01T02:09:02;17.80;65.10
37794;DHT22;23632;48.826;15.176;2023-04-01T02:11:50;17.80;65.10
37794;DHT22;23632;48.826;15.176;2023-04-01T02:14:24;17.80;65.10
37794;DHT22;23632;48.826;15.176;2023-04-01T02:20:05;17.80;65.10
37794;DHT22;23632;48.826;15.176;2023-04-01T02:22:38;17.80;65.20
37794;DHT22;23632;48.826;15.176;2023-04-01T02:25:12;17.80;65.10
37794;DHT22;23632;48.826;15.176;2023-04-01T02:27:43;17.80;65.10
37794;DHT22;23632;48.826;15.176;2023-04-01T02:30:13;17.80;65.20
37794;DHT22;23632;48.826;15.176;2023-04-01T02:32:42;17.80;65.20
37794;DHT22;23632;48.826;15.176;2023-04-01T02:35:11;17.80;65.20
37794;DHT22;23632;48.826;15.176;2023-04-01T02:37:43;17.80;65.20
37794;DHT22;23632;48.826;15.176;2023-04-01T02:40:12;17.80;65.20
37794;DHT22;23632;48.826;15.176;2023-04-01T02:42:41;17.80;65.20
37794;DHT22;23632;48.826;15.176;2023-04-01T02:45:10;17.80;65.20
37794;DHT22;23632;48.826;15.176;2023-04-01T02:47:38;17.80;65.20
37794;DHT22;23632;48.826;15.176;2023-04-01T02:50:06;17.80;65.20
37794;DHT22;23632;48.826;15.176;2023-04-01T02:52:34;17.80;65.20
37794;DHT22;23632;48.826;15.176;2023-04-01T02:55:02;17.80;65.20
37794;DHT22;23632;48.826;15.176;2023-04-01T02:57:32;17.80;65.10
37794;DHT22;23632;48.826;15.176;2023-04-01T02:59:59;17.80;65.20
37794;DHT22;23632;48.826;15.176;2023-04-01T03:02:26;17.70;65.10
37794;DHT22;23632;48.826;15.176;2023-04-01T03:04:53;17.80;65.20
37794;DHT22;23632;48.826;15.176;2023-04-01T03:07:21;17.80;65.20
37794;DHT22;23632;48.826;15.176;2023-04-01T03:09:48;17.80;65.20
37794;DHT22;23632;48.826;15.176;2023-04-01T03:12:16;17.80;65.20
37794;DHT22;23632;48.826;15.176;2023-04-01T03:14:49;17.80;65.20
37794;DHT22;23632;48.826;15.176;2023-04-01T03:17:16;17.80;65.20
37794;DHT22;23632;48.826;15.176;2023-04-01T03:19:44;17.80;65.30
37794;DHT22;23632;48.826;15.176;2023-04-01T03:22:11;17.80;65.20
37794;DHT22;23632;48.826;15.176;2023-04-01T03:24:38;17.70;65.10
37794;DHT22;23632;48.826;15.176;2023-04-01T03:27:06;17.80;65.20
37794;DHT22;23632;48.826;15.176;2023-04-01T03:29:33;17.80;65.30
37794;DHT22;23632;48.826;15.176;2023-04-01T03:32:00;17.70;65.10
37794;DHT22;23632;48.826;15.176;2023-04-01T03:34:27;17.70;65.20
37794;DHT22;23632;48.826;15.176;2023-04-01T03:36:55;17.70;65.10
37794;DHT22;23632;48.826;15.176;2023-04-01T03:39:22;17.70;65.20
37794;DHT22;23632;48.826;15.176;2023-04-01T03:41:50;17.70;66.10
37794;DHT22;23632;48.826;15.176;2023-04-01T03:44:17;17.70;65.20
37794;DHT22;23632;48.826;15.176;2023-04-01T03:46:48;17.70;65.20
37794;DHT22;23632;48.826;15.176;2023-04-01T03:49:16;17.70;65.20
37794;DHT22;23632;48.826;15.176;2023-04-01T03:51:44;17.70;65.10
37794;DHT22;23632;48.826;15.176;2023-04-01T03:54:11;17.70;65.20
37794;DHT22;23632;48.826;15.176;2023-04-01T03:56:39;17.70;65.20
37794;DHT22;23632;48.826;15.176;2023-04-01T03:59:07;17.70;65.20
37794;DHT22;23632;48.826;15.176;2023-04-01T04:01:35;17.70;65.20
37794;DHT22;23632;48.826;15.176;2023-04-01T04:04:03;17.70;65.20
37794;DHT22;23632;48.826;15.176;2023-04-01T04:06:30;17.70;65.20
37794;DHT22;23632;48.826;15.176;2023-04-01T04:08:57;17.70;65.20
37794;DHT22;23632;48.826;15.176;2023-04-01T04:11:25;17.70;65.20
37794;DHT22;23632;48.826;15.176;2023-04-01T04:13:53;17.70;65.20
37794;DHT22;23632;48.826;15.176;2023-04-01T04:16:22;17.70;65.20
37794;DHT22;23632;48.826;15.176;2023-04-01T04:18:56;17.70;65.20
37794;DHT22;23632;48.826;15.176;2023-04-01T04:21:23;17.70;65.20
37794;DHT22;23632;48.826;15.176;2023-04-01T04:23:50;17.70;65.20
37794;DHT22;23632;48.826;15.176;2023-04-01T04:26:19;17.70;65.20
37794;DHT22;23632;48.826;15.176;2023-04-01T04:28:54;17.70;65.20
37794;DHT22;23632;48.826;15.176;2023-04-01T04:31:23;17.70;65.20
37794;DHT22;23632;48.826;15.176;2023-04-01T04:33:54;17.70;65.20
37794;DHT22;23632;48.826;15.176;2023-04-01T04:36:22;17.70;65.20
37794;DHT22;23632;48.826;15.176;2023-04-01T04:38:51;17.70;65.20
37794;DHT22;23632;48.826;15.176;2023-04-01T04:41:19;17.70;65.20
37794;DHT22;23632;48.826;15.176;2023-04-01T04:43:55;17.70;65.30
37794;DHT22;23632;48.826;15.176;2023-04-01T04:46:24;17.70;65.30
37794;DHT22;23632;48.826;15.176;2023-04-01T04:49:03;17.70;65.20
37794;DHT22;23632;48.826;15.176;2023-04-01T04:51:30;17.70;65.20
37794;DHT22;23632;48.826;15.176;2023-04-01T04:54:04;17.70;65.20
37794;DHT22;23632;48.826;15.176;2023-04-01T04:56:45;17.70;65.30
37794;DHT22;23632;48.826;15.176;2023-04-01T04:59:13;17.60;65.20
37794;DHT22;23632;48.826;15.176;2023-04-01T05:01:47;17.70;65.30
37794;DHT22;23632;48.826;15.176;2023-04-01T05:04:14;17.70;65.20
37794;DHT22;23632;48.826;15.176;2023-04-01T05:06:43;17.70;65.30
37794;DHT22;23632;48.826;15.176;2023-04-01T05:09:11;17.70;65.30
37794;DHT22;23632;48.826;15.176;2023-04-01T05:11:39;17.60;65.20
37794;DHT22;23632;48.826;15.176;2023-04-01T05:14:12;17.60;65.20
37794;DHT22;23632;48.826;15.176;2023-04-01T05:16:50;17.60;65.20
37794;DHT22;23632;48.826;15.176;2023-04-01T05:19:17;17.70;65.30
37794;DHT22;23632;48.826;15.176;2023-04-01T05:21:44;17.70;65.30
37794;DHT22;23632;48.826;15.176;2023-04-01T05:24:12;17.60;65.20
37794;DHT22;23632;48.826;15.176;2023-04-01T05:26:40;17.60;65.30
37794;DHT22;23632;48.826;15.176;2023-04-01T05:29:07;17.60;65.20
37794;DHT22;23632;48.826;15.176;2023-04-01T05:31:34;17.60;65.30
37794;DHT22;23632;48.826;15.176;2023-04-01T05:34:03;17.60;65.30
37794;DHT22;23632;48.826;15.176;2023-04-01T05:36:31;17.60;65.20
37794;DHT22;23632;48.826;15.176;2023-04-01T05:38:58;17.60;65.30
37794;DHT22;23632;48.826;15.176;2023-04-01T05:41:26;17.60;65.30
37794;DHT22;23632;48.826;15.176;2023-04-01T05:43:56;17.60;65.30
37794;DHT22;23632;48.826;15.176;2023-04-01T05:46:43;17.60;65.30
37794;DHT22;23632;48.826;15.176;2023-04-01T05:49:21;17.60;65.30
37794;DHT22;23632;48.826;15.176;2023-04-01T05:51:50;17.60;65.30
37794;DHT22;23632;48.826;15.176;2023-04-01T05:54:18;17.60;65.30
37794;DHT22;23632;48.826;15.176;2023-04-01T05:56:47;17.60;65.30
37794;DHT22;23632;48.826;15.176;2023-04-01T05:59:15;17.60;65.30
37794;DHT22;23632;48.826;15.176;2023-04-01T06:01:42;17.60;65.30
37794;DHT22;23632;48.826;15.176;2023-04-01T06:04:15;17.60;65.30
37794;DHT22;23632;48.826;15.176;2023-04-01T06:06:44;17.60;65.30
37794;DHT22;23632;48.826;15.176;2023-04-01T06:09:27;17.60;65.30
37794;DHT22;23632;48.826;15.176;2023-04-01T06:12:19;17.60;65.30
37794;DHT22;23632;48.826;15.176;2023-04-01T06:21:33;17.60;65.30
37794;DHT22;23632;48.826;15.176;2023-04-01T06:30:33;17.60;65.30
37794;DHT22;23632;48.826;15.176;2023-04-01T06:41:21;17.60;65.40
37794;DHT22;23632;48.826;15.176;2023-04-01T06:54:16;17.70;65.50
37794;DHT22;23632;48.826;15.176;2023-04-01T07:00:28;17.70;65.40
37794;DHT22;23632;48.826;15.176;2023-04-01T07:03:20;17.60;65.40
37794;DHT22;23632;48.826;15.176;2023-04-01T07:05:50;17.60;65.40
37794;DHT22;23632;48.826;15.176;2023-04-01T07:08:25;17.70;65.50
37794;DHT22;23632;48.826;15.176;2023-04-01T07:11:04;17.70;65.50
37794;DHT22;23632;48.826;15.176;2023-04-01T07:19:51;17.70;65.50
37794;DHT22;23632;48.826;15.176;2023-04-01T07:22:36;17.70;65.60
37794;DHT22;23632;48.826;15.176;2023-04-01T07:25:24;17.70;64.90
37794;DHT22;23632;48.826;15.176;2023-04-01T07:28:16;17.70;63.90
37794;DHT22;23632;48.826;15.176;2023-04-01T07:36:59;17.60;62.60
37794;DHT22;23632;48.826;15.176;2023-04-01T07:46:02;17.30;62.00
37794;DHT22;23632;48.826;15.176;2023-04-01T08:06:56;16.90;61.30
37794;DHT22;23632;48.826;15.176;2023-04-01T08:16:21;16.80;61.10
37794;DHT22;23632;48.826;15.176;2023-04-01T08:22:03;16.70;61.10
37794;DHT22;23632;48.826;15.176;2023-04-01T08:24:43;16.70;61.00
37794;DHT22;23632;48.826;15.176;2023-04-01T08:30:21;16.60;61.90
37794;DHT22;23632;48.826;15.176;2023-04-01T08:33:09;16.60;62.10
37794;DHT22;23632;48.826;15.176;2023-04-01T08:36:02;16.60;61.80
37794;DHT22;23632;48.826;15.176;2023-04-01T08:38:46;16.60;61.90
37794;DHT22;23632;48.826;15.176;2023-04-01T08:44:50;16.70;62.40
37794;DHT22;23632;48.826;15.176;2023-04-01T08:51:11;16.70;62.40
37794;DHT22;23632;48.826;15.176;2023-04-01T08:54:21;16.70;62.50
37794;DHT22;23632;48.826;15.176;2023-04-01T09:10:50;16.80;62.40
37794;DHT22;23632;48.826;15.176;2023-04-01T09:26:17;16.80;62.20
37794;DHT22;23632;48.826;15.176;2023-04-01T09:44:14;16.70;62.30
37794;DHT22;23632;48.826;15.176;2023-04-01T09:50:42;16.80;62.40
37794;DHT22;23632;48.826;15.176;2023-04-01T10:30:05;16.90;61.60
37794;DHT22;23632;48.826;15.176;2023-04-01T10:39:45;16.90;61.50
37794;DHT22;23632;48.826;15.176;2023-04-01T10:55:36;17.00;61.70
37794;DHT22;23632;48.826;15.176;2023-04-01T11:21:31;17.10;61.20
37794;DHT22;23632;48.826;15.176;2023-04-01T11:27:49;17.10;61.40
37794;DHT22;23632;48.826;15.176;2023-04-01T11:33:36;17.20;61.80
37794;DHT22;23632;48.826;15.176;2023-04-01T11:39:14;17.20;61.80
37794;DHT22;23632;48.826;15.176;2023-04-01T11:45:32;17.30;61.70
37794;DHT22;23632;48.826;15.176;2023-04-01T12:00:44;17.40;61.40
37794;DHT22;23632;48.826;15.176;2023-04-01T12:06:35;17.40;61.50
37794;DHT22;23632;48.826;15.176;2023-04-01T12:18:46;17.50;61.50
37794;DHT22;23632;48.826;15.176;2023-04-01T12:21:33;17.50;61.50
37794;DHT22;23632;48.826;15.176;2023-04-01T12:30:21;17.50;61.50
37794;DHT22;23632;48.826;15.176;2023-04-01T12:33:37;17.50;61.50
37794;DHT22;23632;48.826;15.176;2023-04-01T12:39:22;17.60;61.60
37794;DHT22;23632;48.826;15.176;2023-04-01T12:45:23;17.70;61.70
37794;DHT22;23632;48.826;15.176;2023-04-01T12:48:20;17.70;61.70
37794;DHT22;23632;48.826;15.176;2023-04-01T12:51:18;17.70;61.70
37794;DHT22;23632;48.826;15.176;2023-04-01T12:54:17;17.70;61.70
37794;DHT22;23632;48.826;15.176;2023-04-01T12:57:18;17.80;61.80
37794;DHT22;23632;48.826;15.176;2023-04-01T13:03:37;18.00;61.70
37794;DHT22;23632;48.826;15.176;2023-04-01T13:09:27;18.00;61.00
37794;DHT22;23632;48.826;15.176;2023-04-01T13:21:26;18.10;61.00
37794;DHT22;23632;48.826;15.176;2023-04-01T13:27:21;18.10;61.00
37794;DHT22;23632;48.826;15.176;2023-04-01T13:30:27;18.10;61.00
37794;DHT22;23632;48.826;15.176;2023-04-01T13:33:11;18.10;61.00
37794;DHT22;23632;48.826;15.176;2023-04-01T13:38:56;18.10;60.70
37794;DHT22;23632;48.826;15.176;2023-04-01T13:44:16;18.10;60.60
37794;DHT22;23632;48.826;15.176;2023-04-01T13:50:01;18.00;60.50
37794;DHT22;23632;48.826;15.176;2023-04-01T14:01:38;18.10;60.50
37794;DHT22;23632;48.826;15.176;2023-04-01T14:13:28;18.00;60.70
37794;DHT22;23632;48.826;15.176;2023-04-01T14:16:44;18.10;60.90
37794;DHT22;23632;48.826;15.176;2023-04-01T14:19:40;18.10;60.90
37794;DHT22;23632;48.826;15.176;2023-04-01T14:22:29;18.10;61.00
37794;DHT22;23632;48.826;15.176;2023-04-01T14:28:02;18.10;61.10
37794;DHT22;23632;48.826;15.176;2023-04-01T14:34:21;18.10;61.00
37794;DHT22;23632;48.826;15.176;2023-04-01T14:40:14;18.10;60.90
37794;DHT22;23632;48.826;15.176;2023-04-01T14:48:21;18.20;60.90
37794;DHT22;23632;48.826;15.176;2023-04-01T14:51:31;18.30;60.60
37794;DHT22;23632;48.826;15.176;2023-04-01T14:54:19;18.30;60.60
37794;DHT22;23632;48.826;15.176;2023-04-01T15:02:57;18.40;60.60
37794;DHT22;23632;48.826;15.176;2023-04-01T15:14:17;18.40;60.20
37794;DHT22;23632;48.826;15.176;2023-04-01T15:17:25;18.40;60.10
37794;DHT22;23632;48.826;15.176;2023-04-01T15:23:05;18.30;60.00
37794;DHT22;23632;48.826;15.176;2023-04-01T15:34:53;18.30;60.00
37794;DHT22;23632;48.826;15.176;2023-04-01T15:37:58;18.30;60.00
37794;DHT22;23632;48.826;15.176;2023-04-01T15:43:50;18.30;60.10
37794;DHT22;23632;48.826;15.176;2023-04-01T16:04:22;18.20;60.10
37794;DHT22;23632;48.826;15.176;2023-04-01T16:10:25;18.20;60.00
37794;DHT22;23632;48.826;15.176;2023-04-01T16:16:40;18.10;60.00
37794;DHT22;23632;48.826;15.176;2023-04-01T16:25:17;18.00;59.70
37794;DHT22;23632;48.826;15.176;2023-04-01T16:28:28;18.00;59.80
37794;DHT22;23632;48.826;15.176;2023-04-01T16:31:15;18.00;59.70
37794;DHT22;23632;48.826;15.176;2023-04-01T16:34:24;18.00;60.00
37794;DHT22;23632;48.826;15.176;2023-04-01T16:37:10;17.90;59.90
37794;DHT22;23632;48.826;15.176;2023-04-01T16:39:54;17.90;60.00
37794;DHT22;23632;48.826;15.176;2023-04-01T16:46:39;17.90;60.00
37794;DHT22;23632;48.826;15.176;2023-04-01T16:57:42;17.80;60.10
37794;DHT22;23632;48.826;15.176;2023-04-01T17:09:32;17.80;60.30
37794;DHT22;23632;48.826;15.176;2023-04-01T17:15:19;17.70;60.90
37794;DHT22;23632;48.826;15.176;2023-04-01T17:20:55;17.70;60.00
37794;DHT22;23632;48.826;15.176;2023-04-01T17:23:59;17.70;60.00
37794;DHT22;23632;48.826;15.176;2023-04-01T17:26:43;17.70;60.10
37794;DHT22;23632;48.826;15.176;2023-04-01T17:32:01;17.70;60.20
37794;DHT22;23632;48.826;15.176;2023-04-01T17:37:48;17.70;60.40
37794;DHT22;23632;48.826;15.176;2023-04-01T17:44:08;17.60;60.50
37794;DHT22;23632;48.826;15.176;2023-04-01T17:55:55;17.60;60.60
37794;DHT22;23632;48.826;15.176;2023-04-01T17:58:46;17.60;60.60
37794;DHT22;23632;48.826;15.176;2023-04-01T18:01:42;17.60;60.60
37794;DHT22;23632;48.826;15.176;2023-04-01T18:10:17;17.60;60.70
37794;DHT22;23632;48.826;15.176;2023-04-01T18:16:28;17.60;60.70
37794;DHT22;23632;48.826;15.176;2023-04-01T18:19:23;17.60;60.80
37794;DHT22;23632;48.826;15.176;2023-04-01T18:22:17;17.60;60.80
37794;DHT22;23632;48.826;15.176;2023-04-01T18:25:01;17.60;60.90
37794;DHT22;23632;48.826;15.176;2023-04-01T18:27:45;17.60;60.90
37794;DHT22;23632;48.826;15.176;2023-04-01T18:33:15;17.60;61.00
37794;DHT22;23632;48.826;15.176;2023-04-01T18:36:09;17.50;60.90
37794;DHT22;23632;48.826;15.176;2023-04-01T18:39:00;17.50;60.90
37794;DHT22;23632;48.826;15.176;2023-04-01T18:50:48;17.50;61.10
37794;DHT22;23632;48.826;15.176;2023-04-01T18:53:41;17.50;61.10
37794;DHT22;23632;48.826;15.176;2023-04-01T18:56:22;17.50;61.30
37794;DHT22;23632;48.826;15.176;2023-04-01T19:01:40;17.50;61.50
37794;DHT22;23632;48.826;15.176;2023-04-01T19:04:52;17.50;61.40
37794;DHT22;23632;48.826;15.176;2023-04-01T19:10:14;17.50;61.50
37794;DHT22;23632;48.826;15.176;2023-04-01T19:12:52;17.40;61.40
37794;DHT22;23632;48.826;15.176;2023-04-01T19:24:42;17.40;61.40
37794;DHT22;23632;48.826;15.176;2023-04-01T19:27:41;17.40;61.40
37794;DHT22;23632;48.826;15.176;2023-04-01T19:36:54;17.40;61.40
37794;DHT22;23632;48.826;15.176;2023-04-01T19:43:33;17.30;61.30
37794;DHT22;23632;48.826;15.176;2023-04-01T19:46:32;17.30;61.40
37794;DHT22;23632;48.826;15.176;2023-04-01T19:51:57;17.30;61.40
37794;DHT22;23632;48.826;15.176;2023-04-01T19:54:48;17.30;61.40
37794;DHT22;23632;48.826;15.176;2023-04-01T19:57:26;17.30;61.40
37794;DHT22;23632;48.826;15.176;2023-04-01T20:00:24;17.30;61.40
37794;DHT22;23632;48.826;15.176;2023-04-01T20:05:47;17.30;61.40
37794;DHT22;23632;48.826;15.176;2023-04-01T20:11:25;17.30;61.30
37794;DHT22;23632;48.826;15.176;2023-04-01T20:14:21;17.30;61.40
37794;DHT22;23632;48.826;15.176;2023-04-01T20:19:49;17.20;61.30
37794;DHT22;23632;48.826;15.176;2023-04-01T20:25:43;17.20;61.30
37794;DHT22;23632;48.826;15.176;2023-04-01T20:31:01;17.20;62.20
37794;DHT22;23632;48.826;15.176;2023-04-01T20:43:23;17.20;61.30
37794;DHT22;23632;48.826;15.176;2023-04-01T20:55:18;17.10;61.50
37794;DHT22;23632;48.826;15.176;2023-04-01T21:12:29;17.10;62.00
37794;DHT22;23632;48.826;15.176;2023-04-01T21:50:25;17.10;62.50
37794;DHT22;23632;48.826;15.176;2023-04-01T22:06:16;17.00;62.60
37794;DHT22;23632;48.826;15.176;2023-04-01T22:14:50;17.00;62.70
37794;DHT22;23632;48.826;15.176;2023-04-01T22:17:41;17.10;62.90
37794;DHT22;23632;48.826;15.176;2023-04-01T22:20:27;17.00;62.70
37794;DHT22;23632;48.826;15.176;2023-04-01T22:23:39;17.00;62.80
37794;DHT22;23632;48.826;15.176;2023-04-01T22:26:48;17.00;62.80
37794;DHT22;23632;48.826;15.176;2023-04-01T22:30:04;17.00;62.70
37794;DHT22;23632;48.826;15.176;2023-04-01T22:32:48;17.00;62.70
37794;DHT22;23632;48.826;15.176;2023-04-01T22:36:04;17.00;62.80
37794;DHT22;23632;48.826;15.176;2023-04-01T22:41:44;17.00;63.00
37794;DHT22;23632;48.826;15.176;2023-04-01T22:44:46;17.00;63.00
37794;DHT22;23632;48.826;15.176;2023-04-01T22:50:09;17.00;62.90
37794;DHT22;23632;48.826;15.176;2023-04-01T22:52:42;17.00;63.00
37794;DHT22;23632;48.826;15.176;2023-04-01T22:55:27;17.00;64.10
37794;DHT22;23632;48.826;15.176;2023-04-01T22:58:00;17.00;63.10
37794;DHT22;23632;48.826;15.176;2023-04-01T23:00:41;17.00;63.10
37794;DHT22;23632;48.826;15.176;2023-04-01T23:03:34;17.00;63.10
37794;DHT22;23632;48.826;15.176;2023-04-01T23:06:04;17.00;63.10
37794;DHT22;23632;48.826;15.176;2023-04-01T23:11:28;17.00;63.10
37794;DHT22;23632;48.826;15.176;2023-04-01T23:17:16;17.00;63.10
37794;DHT22;23632;48.826;15.176;2023-04-01T23:20:15;17.00;63.10
37794;DHT22;23632;48.826;15.176;2023-04-01T23:25:46;17.10;63.20
37794;DHT22;23632;48.826;15.176;2023-04-01T23:28:26;17.00;63.10
37794;DHT22;23632;48.826;15.176;2023-04-01T23:30:58;17.10;63.30
37794;DHT22;23632;48.826;15.176;2023-04-01T23:33:30;17.00;63.10
37794;DHT22;23632;48.826;15.176;2023-04-01T23:35:58;17.00;63.30
37794;DHT22;23632;48.826;15.176;2023-04-01T23:38:36;17.00;63.20
37794;DHT22;23632;48.826;15.176;2023-04-01T23:41:06;17.00;63.30
37794;DHT22;23632;48.826;15.176;2023-04-01T23:43:38;17.00;63.30
37794;DHT22;23632;48.826;15.176;2023-04-01T23:46:07;17.00;63.40
37794;DHT22;23632;48.826;15.176;2023-04-01T23:48:40;17.00;63.30
37794;DHT22;23632;48.826;15.176;2023-04-01T23:51:35;17.00;63.40
37794;DHT22;23632;48.826;15.176;2023-04-01T23:54:18;17.00;63.40
37794;DHT22;23632;48.826;15.176;2023-04-01T23:56:53;17.10;63.50
37794;DHT22;23632;48.826;15.176;2023-04-01T23:59:30;17.10;63.50
